sensor_id;sensor_type;location;lat;lon;timestamp;pressure;altitude;pressure_sealevel;temperature;humidity
6349;BME280;3207;42.648;23.406;2023-02-22T00:00:18;100125.50;;;11.87;nan
6349;BME280;3207;42.648;23.406;2023-02-22T00:02:49;100138.47;;;11.88;nan
6349;BME280;3207;42.648;23.406;2023-02-22T00:05:17;100126.69;;;11.83;nan
6349;BME280;3207;42.648;23.406;2023-02-22T00:07:46;100134.56;;;11.83;nan
6349;BME280;3207;42.648;23.406;2023-02-22T00:10:15;100140.78;;;11.93;nan
6349;BME280;3207;42.648;23.406;2023-02-22T00:12:45;100138.47;;;11.88;nan
6349;BME280;3207;42.648;23.406;2023-02-22T00:15:14;100139.31;;;11.89;nan
6349;BME280;3207;42.648;23.406;2023-02-22T00:17:41;100143.47;;;11.80;nan
6349;BME280;3207;42.648;23.406;2023-02-22T00:20:09;100145.69;;;11.73;nan
6349;BME280;3207;42.648;23.406;2023-02-22T00:22:39;100142.13;;;11.74;nan
6349;BME280;3207;42.648;23.406;2023-02-22T00:25:06;100145.31;;;11.67;nan
6349;BME280;3207;42.648;23.406;2023-02-22T00:27:35;100139.22;;;11.66;nan
6349;BME280;3207;42.648;23.406;2023-02-22T00:30:02;100143.78;;;11.64;nan
6349;BME280;3207;42.648;23.406;2023-02-22T00:32:29;100140.47;;;11.73;nan
6349;BME280;3207;42.648;23.406;2023-02-22T00:34:56;100138.69;;;11.74;nan
6349;BME280;3207;42.648;23.406;2023-02-22T00:37:22;100144.03;;;11.72;nan
6349;BME280;3207;42.648;23.406;2023-02-22T00:39:50;100145.94;;;11.70;nan
6349;BME280;3207;42.648;23.406;2023-02-22T00:42:17;100142.66;;;11.56;nan
6349;BME280;3207;42.648;23.406;2023-02-22T00:44:46;100148.50;;;11.59;nan
6349;BME280;3207;42.648;23.406;2023-02-22T00:47:12;100133.28;;;11.53;nan
6349;BME280;3207;42.648;23.406;2023-02-22T00:49:39;100147.41;;;11.51;nan
6349;BME280;3207;42.648;23.406;2023-02-22T00:52:06;100146.69;;;11.49;nan
6349;BME280;3207;42.648;23.406;2023-02-22T00:54:33;100158.84;;;11.50;nan
6349;BME280;3207;42.648;23.406;2023-02-22T00:57:01;100151.81;;;11.50;nan
6349;BME280;3207;42.648;23.406;2023-02-22T00:59:28;100160.50;;;11.51;nan
6349;BME280;3207;42.648;23.406;2023-02-22T01:01:56;100153.03;;;11.57;nan
6349;BME280;3207;42.648;23.406;2023-02-22T01:04:24;100152.53;;;11.52;nan
6349;BME280;3207;42.648;23.406;2023-02-22T01:06:50;100165.38;;;11.55;nan
6349;BME280;3207;42.648;23.406;2023-02-22T01:09:18;100149.66;;;11.55;nan
6349;BME280;3207;42.648;23.406;2023-02-22T01:11:46;100142.63;;;11.45;nan
6349;BME280;3207;42.648;23.406;2023-02-22T01:14:13;100155.53;;;11.59;nan
6349;BME280;3207;42.648;23.406;2023-02-22T01:16:39;100158.00;;;11.49;nan
6349;BME280;3207;42.648;23.406;2023-02-22T01:19:08;100129.63;;;11.32;nan
6349;BME280;3207;42.648;23.406;2023-02-22T01:21:38;100144.91;;;11.49;nan
6349;BME280;3207;42.648;23.406;2023-02-22T01:24:05;100138.34;;;11.44;nan
6349;BME280;3207;42.648;23.406;2023-02-22T01:26:32;100144.03;;;11.37;nan
6349;BME280;3207;42.648;23.406;2023-02-22T01:28:59;100137.00;;;11.38;nan
6349;BME280;3207;42.648;23.406;2023-02-22T01:31:26;100136.06;;;11.39;nan
6349;BME280;3207;42.648;23.406;2023-02-22T01:33:53;100129.38;;;11.35;nan
6349;BME280;3207;42.648;23.406;2023-02-22T01:36:21;100136.06;;;11.39;nan
6349;BME280;3207;42.648;23.406;2023-02-22T01:38:48;100137.75;;;11.40;nan
6349;BME280;3207;42.648;23.406;2023-02-22T01:41:15;100131.50;;;11.30;nan
6349;BME280;3207;42.648;23.406;2023-02-22T01:43:42;100136.53;;;11.33;nan
6349;BME280;3207;42.648;23.406;2023-02-22T01:46:20;100111.69;;;11.15;nan
6349;BME280;3207;42.648;23.406;2023-02-22T01:48:49;100138.63;;;11.28;nan
6349;BME280;3207;42.648;23.406;2023-02-22T01:51:20;100128.91;;;11.30;nan
6349;BME280;3207;42.648;23.406;2023-02-22T01:53:51;100124.16;;;11.35;nan
6349;BME280;3207;42.648;23.406;2023-02-22T01:56:21;100119.84;;;11.34;nan
6349;BME280;3207;42.648;23.406;2023-02-22T01:58:52;100119.16;;;11.32;nan
6349;BME280;3207;42.648;23.406;2023-02-22T02:01:22;100123.94;;;11.14;nan
6349;BME280;3207;42.648;23.406;2023-02-22T02:03:51;100110.94;;;11.02;nan
6349;BME280;3207;42.648;23.406;2023-02-22T02:06:23;100116.41;;;10.98;nan
6349;BME280;3207;42.648;23.406;2023-02-22T02:08:58;100119.84;;;10.99;nan
6349;BME280;3207;42.648;23.406;2023-02-22T02:11:26;100114.72;;;10.97;nan
6349;BME280;3207;42.648;23.406;2023-02-22T02:13:56;100117.28;;;10.86;nan
6349;BME280;3207;42.648;23.406;2023-02-22T02:16:25;100117.38;;;10.85;nan
6349;BME280;3207;42.648;23.406;2023-02-22T02:18:53;100111.25;;;10.73;nan
6349;BME280;3207;42.648;23.406;2023-02-22T02:21:39;100110.97;;;10.65;nan
6349;BME280;3207;42.648;23.406;2023-02-22T02:27:22;100115.91;;;10.57;nan
6349;BME280;3207;42.648;23.406;2023-02-22T02:32:56;100118.84;;;10.40;nan
6349;BME280;3207;42.648;23.406;2023-02-22T02:35:33;100105.31;;;10.35;nan
6349;BME280;3207;42.648;23.406;2023-02-22T02:38:06;100103.84;;;10.31;nan
6349;BME280;3207;42.648;23.406;2023-02-22T02:40:40;100107.81;;;10.23;nan
6349;BME280;3207;42.648;23.406;2023-02-22T02:43:16;100112.72;;;10.15;nan
6349;BME280;3207;42.648;23.406;2023-02-22T02:45:51;100104.78;;;10.04;nan
6349;BME280;3207;42.648;23.406;2023-02-22T02:48:25;100109.59;;;9.98;nan
6349;BME280;3207;42.648;23.406;2023-02-22T02:50:55;100094.44;;;9.77;nan
6349;BME280;3207;42.648;23.406;2023-02-22T02:53:27;100104.03;;;9.77;nan
6349;BME280;3207;42.648;23.406;2023-02-22T02:55:58;100089.66;;;9.71;nan
6349;BME280;3207;42.648;23.406;2023-02-22T02:58:25;100102.19;;;9.79;nan
6349;BME280;3207;42.648;23.406;2023-02-22T03:00:56;100097.03;;;9.65;nan
6349;BME280;3207;42.648;23.406;2023-02-22T03:06:53;100106.13;;;9.59;nan
6349;BME280;3207;42.648;23.406;2023-02-22T03:09:35;100107.16;;;9.57;nan
6349;BME280;3207;42.648;23.406;2023-02-22T03:12:14;100107.69;;;9.49;nan
6349;BME280;3207;42.648;23.406;2023-02-22T03:14:51;100106.63;;;9.39;nan
6349;BME280;3207;42.648;23.406;2023-02-22T03:17:23;100101.94;;;9.31;nan
6349;BME280;3207;42.648;23.406;2023-02-22T03:19:58;100103.59;;;9.32;nan
6349;BME280;3207;42.648;23.406;2023-02-22T03:22:30;100108.59;;;9.35;nan
6349;BME280;3207;42.648;23.406;2023-02-22T03:25:01;100109.44;;;9.36;nan
6349;BME280;3207;42.648;23.406;2023-02-22T03:27:36;100108.59;;;9.35;nan
6349;BME280;3207;42.648;23.406;2023-02-22T03:30:10;100111.84;;;9.39;nan
6349;BME280;3207;42.648;23.406;2023-02-22T03:32:43;100097.41;;;9.21;nan
6349;BME280;3207;42.648;23.406;2023-02-22T03:35:18;100112.44;;;9.30;nan
6349;BME280;3207;42.648;23.406;2023-02-22T03:37:49;100109.38;;;9.23;nan
6349;BME280;3207;42.648;23.406;2023-02-22T03:40:24;100117.66;;;9.30;nan
6349;BME280;3207;42.648;23.406;2023-02-22T03:42:55;100126.00;;;9.35;nan
6349;BME280;3207;42.648;23.406;2023-02-22T03:45:25;100123.50;;;9.33;nan
6349;BME280;3207;42.648;23.406;2023-02-22T03:47:58;100122.66;;;9.33;nan
6349;BME280;3207;42.648;23.406;2023-02-22T03:50:32;100122.97;;;9.28;nan
6349;BME280;3207;42.648;23.406;2023-02-22T03:53:00;100134.03;;;9.19;nan
6349;BME280;3207;42.648;23.406;2023-02-22T03:55:27;100137.56;;;9.18;nan
6349;BME280;3207;42.648;23.406;2023-02-22T03:57:57;100137.56;;;9.18;nan
6349;BME280;3207;42.648;23.406;2023-02-22T04:00:27;100133.09;;;9.20;nan
6349;BME280;3207;42.648;23.406;2023-02-22T04:02:55;100137.38;;;9.21;nan
6349;BME280;3207;42.648;23.406;2023-02-22T04:05:22;100132.16;;;9.21;nan
6349;BME280;3207;42.648;23.406;2023-02-22T04:07:52;100139.22;;;9.19;nan
6349;BME280;3207;42.648;23.406;2023-02-22T04:10:19;100145.28;;;9.20;nan
6349;BME280;3207;42.648;23.406;2023-02-22T04:12:46;100146.31;;;9.17;nan
6349;BME280;3207;42.648;23.406;2023-02-22T04:15:15;100137.75;;;9.15;nan
6349;BME280;3207;42.648;23.406;2023-02-22T04:17:43;100143.63;;;9.18;nan
6349;BME280;3207;42.648;23.406;2023-02-22T04:20:10;100146.13;;;9.20;nan
6349;BME280;3207;42.648;23.406;2023-02-22T04:22:38;100149.66;;;9.19;nan
6349;BME280;3207;42.648;23.406;2023-02-22T04:25:07;100144.84;;;9.13;nan
6349;BME280;3207;42.648;23.406;2023-02-22T04:27:34;100139.19;;;9.06;nan
6349;BME280;3207;42.648;23.406;2023-02-22T04:30:01;100136.97;;;9.00;nan
6349;BME280;3207;42.648;23.406;2023-02-22T04:32:28;100134.06;;;9.05;nan
6349;BME280;3207;42.648;23.406;2023-02-22T04:34:54;100146.44;;;9.01;nan
6349;BME280;3207;42.648;23.406;2023-02-22T04:37:21;100142.38;;;8.97;nan
6349;BME280;3207;42.648;23.406;2023-02-22T04:39:48;100146.19;;;8.92;nan
6349;BME280;3207;42.648;23.406;2023-02-22T04:42:16;100137.34;;;8.94;nan
6349;BME280;3207;42.648;23.406;2023-02-22T04:44:43;100131.22;;;8.95;nan
6349;BME280;3207;42.648;23.406;2023-02-22T04:47:10;100137.25;;;8.96;nan
6349;BME280;3207;42.648;23.406;2023-02-22T04:49:36;100122.22;;;8.87;nan
6349;BME280;3207;42.648;23.406;2023-02-22T04:52:03;100136.38;;;8.82;nan
6349;BME280;3207;42.648;23.406;2023-02-22T04:54:30;100135.44;;;8.84;nan
6349;BME280;3207;42.648;23.406;2023-02-22T04:56:57;100138.47;;;8.90;nan
6349;BME280;3207;42.648;23.406;2023-02-22T04:59:25;100134.22;;;8.89;nan
6349;BME280;3207;42.648;23.406;2023-02-22T05:01:52;100140.66;;;8.84;nan
6349;BME280;3207;42.648;23.406;2023-02-22T05:04:19;100134.41;;;8.86;nan
6349;BME280;3207;42.648;23.406;2023-02-22T05:06:46;100142.13;;;8.88;nan
6349;BME280;3207;42.648;23.406;2023-02-22T05:09:13;100131.06;;;8.84;nan
6349;BME280;3207;42.648;23.406;2023-02-22T05:11:40;100127.53;;;8.85;nan
6349;BME280;3207;42.648;23.406;2023-02-22T05:14:07;100130.78;;;8.89;nan
6349;BME280;3207;42.648;23.406;2023-02-22T05:16:35;100130.97;;;8.86;nan
6349;BME280;3207;42.648;23.406;2023-02-22T05:19:02;100133.84;;;8.81;nan
6349;BME280;3207;42.648;23.406;2023-02-22T05:21:29;100135.84;;;8.77;nan
6349;BME280;3207;42.648;23.406;2023-02-22T05:23:56;100132.19;;;8.80;nan
6349;BME280;3207;42.648;23.406;2023-02-22T05:26:23;100131.34;;;8.79;nan
6349;BME280;3207;42.648;23.406;2023-02-22T05:28:50;100139.38;;;8.76;nan
6349;BME280;3207;42.648;23.406;2023-02-22T05:31:16;100145.69;;;8.72;nan
6349;BME280;3207;42.648;23.406;2023-02-22T05:33:45;100116.34;;;8.42;nan
6349;BME280;3207;42.648;23.406;2023-02-22T05:36:12;100147.56;;;8.70;nan
6349;BME280;3207;42.648;23.406;2023-02-22T05:38:41;100147.13;;;8.64;nan
6349;BME280;3207;42.648;23.406;2023-02-22T05:41:10;100144.78;;;8.59;nan
6349;BME280;3207;42.648;23.406;2023-02-22T05:43:37;100150.91;;;8.58;nan
6349;BME280;3207;42.648;23.406;2023-02-22T05:46:04;100151.59;;;8.62;nan
6349;BME280;3207;42.648;23.406;2023-02-22T05:48:31;100153.34;;;8.61;nan
6349;BME280;3207;42.648;23.406;2023-02-22T05:50:59;100150.75;;;8.61;nan
6349;BME280;3207;42.648;23.406;2023-02-22T05:53:26;100151.66;;;8.60;nan
6349;BME280;3207;42.648;23.406;2023-02-22T05:55:52;100155.41;;;8.56;nan
6349;BME280;3207;42.648;23.406;2023-02-22T05:58:19;100150.75;;;8.61;nan
6349;BME280;3207;42.648;23.406;2023-02-22T06:00:46;100154.84;;;8.65;nan
6349;BME280;3207;42.648;23.406;2023-02-22T06:03:13;100151.31;;;8.66;nan
6349;BME280;3207;42.648;23.406;2023-02-22T06:05:41;100135.59;;;8.68;nan
6349;BME280;3207;42.648;23.406;2023-02-22T06:08:10;100135.66;;;8.66;nan
6349;BME280;3207;42.648;23.406;2023-02-22T06:10:36;100144.09;;;8.84;nan
6349;BME280;3207;42.648;23.406;2023-02-22T06:13:04;100155.16;;;8.88;nan
6349;BME280;3207;42.648;23.406;2023-02-22T06:15:31;100160.63;;;8.97;nan
6349;BME280;3207;42.648;23.406;2023-02-22T06:17:58;100157.69;;;9.16;nan
6349;BME280;3207;42.648;23.406;2023-02-22T06:20:27;100156.91;;;9.28;nan
6349;BME280;3207;42.648;23.406;2023-02-22T06:22:55;100153.97;;;9.33;nan
6349;BME280;3207;42.648;23.406;2023-02-22T06:25:26;100165.59;;;9.54;nan
6349;BME280;3207;42.648;23.406;2023-02-22T06:27:53;100156.13;;;9.53;nan
6349;BME280;3207;42.648;23.406;2023-02-22T06:30:21;100172.34;;;9.96;nan
6349;BME280;3207;42.648;23.406;2023-02-22T06:32:49;100178.66;;;10.44;nan
6349;BME280;3207;42.648;23.406;2023-02-22T06:35:16;100173.78;;;10.76;nan
6349;BME280;3207;42.648;23.406;2023-02-22T06:37:43;100178.50;;;11.08;nan
6349;BME280;3207;42.648;23.406;2023-02-22T06:40:11;100180.72;;;11.25;nan
6349;BME280;3207;42.648;23.406;2023-02-22T06:42:40;100189.63;;;11.46;nan
6349;BME280;3207;42.648;23.406;2023-02-22T06:45:07;100191.16;;;11.72;nan
6349;BME280;3207;42.648;23.406;2023-02-22T06:47:37;100189.63;;;12.05;nan
6349;BME280;3207;42.648;23.406;2023-02-22T06:50:06;100198.59;;;12.36;nan
6349;BME280;3207;42.648;23.406;2023-02-22T06:52:33;100202.50;;;12.64;nan
6349;BME280;3207;42.648;23.406;2023-02-22T06:55:00;100201.31;;;12.90;nan
6349;BME280;3207;42.648;23.406;2023-02-22T06:57:27;100203.81;;;13.46;nan
6349;BME280;3207;42.648;23.406;2023-02-22T06:59:55;100210.16;;;14.17;nan
6349;BME280;3207;42.648;23.406;2023-02-22T07:02:22;100209.41;;;14.96;nan
6349;BME280;3207;42.648;23.406;2023-02-22T07:04:49;100203.56;;;15.81;nan
6349;BME280;3207;42.648;23.406;2023-02-22T07:07:15;100210.91;;;16.63;nan
6349;BME280;3207;42.648;23.406;2023-02-22T07:09:45;100209.41;;;17.50;nan
6349;BME280;3207;42.648;23.406;2023-02-22T07:12:12;100208.00;;;18.17;nan
6349;BME280;3207;42.648;23.406;2023-02-22T07:14:38;100208.53;;;18.81;nan
6349;BME280;3207;42.648;23.406;2023-02-22T07:17:07;100204.47;;;19.69;nan
6349;BME280;3207;42.648;23.406;2023-02-22T07:19:33;100212.69;;;20.55;nan
6349;BME280;3207;42.648;23.406;2023-02-22T07:22:01;100218.34;;;21.30;nan
6349;BME280;3207;42.648;23.406;2023-02-22T07:24:28;100204.34;;;21.82;nan
6349;BME280;3207;42.648;23.406;2023-02-22T07:26:55;100204.94;;;22.30;nan
6349;BME280;3207;42.648;23.406;2023-02-22T07:29:22;100217.91;;;22.91;nan
6349;BME280;3207;42.648;23.406;2023-02-22T07:31:48;100208.81;;;23.58;nan
6349;BME280;3207;42.648;23.406;2023-02-22T07:34:17;100212.78;;;24.39;nan
6349;BME280;3207;42.648;23.406;2023-02-22T07:36:44;100213.00;;;25.20;nan
6349;BME280;3207;42.648;23.406;2023-02-22T07:39:11;100219.31;;;25.99;nan
6349;BME280;3207;42.648;23.406;2023-02-22T07:41:38;100217.81;;;26.63;nan
6349;BME280;3207;42.648;23.406;2023-02-22T07:44:04;100215.53;;;27.24;nan
6349;BME280;3207;42.648;23.406;2023-02-22T07:46:31;100207.41;;;27.75;nan
6349;BME280;3207;42.648;23.406;2023-02-22T07:48:58;100226.25;;;28.18;nan
6349;BME280;3207;42.648;23.406;2023-02-22T07:51:26;100221.28;;;28.40;nan
6349;BME280;3207;42.648;23.406;2023-02-22T07:53:53;100224.66;;;28.35;nan
6349;BME280;3207;42.648;23.406;2023-02-22T07:56:20;100211.22;;;28.54;nan
6349;BME280;3207;42.648;23.406;2023-02-22T07:58:47;100220.50;;;28.76;nan
6349;BME280;3207;42.648;23.406;2023-02-22T08:01:13;100225.13;;;29.24;nan
6349;BME280;3207;42.648;23.406;2023-02-22T08:03:40;100225.44;;;29.75;nan
6349;BME280;3207;42.648;23.406;2023-02-22T08:06:07;100229.72;;;30.18;nan
6349;BME280;3207;42.648;23.406;2023-02-22T08:08:35;100222.56;;;30.47;nan
6349;BME280;3207;42.648;23.406;2023-02-22T08:11:02;100231.88;;;30.91;nan
6349;BME280;3207;42.648;23.406;2023-02-22T08:13:30;100222.38;;;31.28;nan
6349;BME280;3207;42.648;23.406;2023-02-22T08:15:57;100225.00;;;31.69;nan
6349;BME280;3207;42.648;23.406;2023-02-22T08:18:24;100220.66;;;32.01;nan
6349;BME280;3207;42.648;23.406;2023-02-22T08:20:52;100222.97;;;32.26;nan
6349;BME280;3207;42.648;23.406;2023-02-22T08:23:22;100230.94;;;32.54;nan
6349;BME280;3207;42.648;23.406;2023-02-22T08:25:53;100223.75;;;33.03;nan
6349;BME280;3207;42.648;23.406;2023-02-22T08:28:22;100226.84;;;32.90;nan
6349;BME280;3207;42.648;23.406;2023-02-22T08:30:49;100229.47;;;33.29;nan
6349;BME280;3207;42.648;23.406;2023-02-22T08:33:17;100180.94;;;33.27;nan
6349;BME280;3207;42.648;23.406;2023-02-22T08:35:45;100233.13;;;33.98;nan
6349;BME280;3207;42.648;23.406;2023-02-22T08:38:18;100232.41;;;34.55;nan
6349;BME280;3207;42.648;23.406;2023-02-22T08:40:46;100220.50;;;34.61;nan
6349;BME280;3207;42.648;23.406;2023-02-22T08:43:15;100228.88;;;35.07;nan
6349;BME280;3207;42.648;23.406;2023-02-22T08:45:43;100226.81;;;35.44;nan
6349;BME280;3207;42.648;23.406;2023-02-22T08:48:10;100229.53;;;36.15;nan
6349;BME280;3207;42.648;23.406;2023-02-22T08:50:38;100216.94;;;36.50;nan
6349;BME280;3207;42.648;23.406;2023-02-22T08:53:06;100227.66;;;37.00;nan
6349;BME280;3207;42.648;23.406;2023-02-22T08:55:35;100222.03;;;37.36;nan
6349;BME280;3207;42.648;23.406;2023-02-22T08:58:03;100243.13;;;37.64;nan
6349;BME280;3207;42.648;23.406;2023-02-22T11:50:16;100053.66;;;45.02;10.09
6349;BME280;3207;42.648;23.406;2023-02-22T11:52:52;100046.78;;;42.42;11.43
6349;BME280;3207;42.648;23.406;2023-02-22T11:55:23;100026.16;;;41.57;12.11
6349;BME280;3207;42.648;23.406;2023-02-22T11:58:04;100039.19;;;40.76;12.62
6349;BME280;3207;42.648;23.406;2023-02-22T12:00:44;100026.25;;;40.54;12.86
6349;BME280;3207;42.648;23.406;2023-02-22T12:03:39;100024.25;;;38.53;13.88
6349;BME280;3207;42.648;23.406;2023-02-22T12:06:21;100019.44;;;38.44;14.00
6349;BME280;3207;42.648;23.406;2023-02-22T12:09:01;100019.72;;;38.62;14.06
6349;BME280;3207;42.648;23.406;2023-02-22T12:11:36;100025.16;;;38.99;13.81
6349;BME280;3207;42.648;23.406;2023-02-22T12:14:16;100007.03;;;37.38;14.86
6349;BME280;3207;42.648;23.406;2023-02-22T12:19:47;99994.13;;;35.87;15.82
6349;BME280;3207;42.648;23.406;2023-02-22T12:22:20;99993.47;;;35.01;16.43
6349;BME280;3207;42.648;23.406;2023-02-22T12:24:53;99990.75;;;33.40;17.74
6349;BME280;3207;42.648;23.406;2023-02-22T12:27:24;99989.28;;;32.37;18.46
6349;BME280;3207;42.648;23.406;2023-02-22T12:29:57;99977.00;;;31.09;19.62
6349;BME280;3207;42.648;23.406;2023-02-22T12:32:32;99966.34;;;30.00;20.64
6349;BME280;3207;42.648;23.406;2023-02-22T12:35:11;99963.13;;;29.17;21.76
6349;BME280;3207;42.648;23.406;2023-02-22T12:37:50;99951.78;;;28.50;22.65
6349;BME280;3207;42.648;23.406;2023-02-22T12:40:20;99956.03;;;28.09;23.12
6349;BME280;3207;42.648;23.406;2023-02-22T12:42:54;99941.59;;;27.74;23.83
6349;BME280;3207;42.648;23.406;2023-02-22T12:45:29;99935.56;;;27.35;24.28
6349;BME280;3207;42.648;23.406;2023-02-22T12:48:06;99935.63;;;27.10;24.32
6349;BME280;3207;42.648;23.406;2023-02-22T12:50:36;99905.47;;;26.83;24.85
6349;BME280;3207;42.648;23.406;2023-02-22T12:53:11;99910.94;;;26.45;25.02
6349;BME280;3207;42.648;23.406;2023-02-22T12:55:42;99904.38;;;26.03;25.96
6349;BME280;3207;42.648;23.406;2023-02-22T12:58:20;99917.66;;;26.23;25.66
6349;BME280;3207;42.648;23.406;2023-02-22T13:00:56;99904.19;;;25.98;26.06
6349;BME280;3207;42.648;23.406;2023-02-22T13:03:32;99919.78;;;25.57;26.52
6349;BME280;3207;42.648;23.406;2023-02-22T13:06:13;99918.41;;;25.34;26.87
6349;BME280;3207;42.648;23.406;2023-02-22T13:08:55;99914.50;;;24.91;27.31
6349;BME280;3207;42.648;23.406;2023-02-22T13:11:27;99917.41;;;24.83;27.39
6349;BME280;3207;42.648;23.406;2023-02-22T13:14:09;99916.78;;;24.67;27.62
6349;BME280;3207;42.648;23.406;2023-02-22T13:16:43;99910.69;;;23.52;29.06
6349;BME280;3207;42.648;23.406;2023-02-22T13:19:25;99909.50;;;23.61;28.92
6349;BME280;3207;42.648;23.406;2023-02-22T13:21:57;99909.16;;;23.43;29.22
6349;BME280;3207;42.648;23.406;2023-02-22T13:24:33;99908.00;;;23.24;29.36
6349;BME280;3207;42.648;23.406;2023-02-22T13:27:08;99900.47;;;22.99;29.65
6349;BME280;3207;42.648;23.406;2023-02-22T13:29:38;99912.84;;;23.07;29.84
6349;BME280;3207;42.648;23.406;2023-02-22T13:32:14;99903.16;;;22.78;30.55
6349;BME280;3207;42.648;23.406;2023-02-22T13:35:01;99911.88;;;22.66;30.40
6349;BME280;3207;42.648;23.406;2023-02-22T13:37:57;99909.00;;;21.88;31.95
6349;BME280;3207;42.648;23.406;2023-02-22T13:43:50;99870.91;;;22.03;32.03
6349;BME280;3207;42.648;23.406;2023-02-22T13:46:43;99895.28;;;22.70;31.33
6349;BME280;3207;42.648;23.406;2023-02-22T13:49:31;99897.56;;;22.73;31.15
6349;BME280;3207;42.648;23.406;2023-02-22T13:52:00;99885.78;;;22.61;31.51
6349;BME280;3207;42.648;23.406;2023-02-22T13:54:34;99880.97;;;22.28;31.82
6349;BME280;3207;42.648;23.406;2023-02-22T13:57:03;99876.28;;;22.31;31.29
6349;BME280;3207;42.648;23.406;2023-02-22T13:59:44;99881.28;;;22.40;31.36
6349;BME280;3207;42.648;23.406;2023-02-22T14:02:32;99883.63;;;22.50;31.40
6349;BME280;3207;42.648;23.406;2023-02-22T14:05:33;99883.09;;;22.33;31.75
6349;BME280;3207;42.648;23.406;2023-02-22T14:08:00;99879.66;;;22.39;31.47
6349;BME280;3207;42.648;23.406;2023-02-22T14:10:38;99892.31;;;22.58;31.44
6349;BME280;3207;42.648;23.406;2023-02-22T14:13:10;99881.13;;;22.70;31.28
6349;BME280;3207;42.648;23.406;2023-02-22T14:16:16;99884.06;;;22.75;31.30
6349;BME280;3207;42.648;23.406;2023-02-22T14:18:46;99885.88;;;22.95;31.07
6349;BME280;3207;42.648;23.406;2023-02-22T14:21:15;99886.81;;;23.09;30.41
6349;BME280;3207;42.648;23.406;2023-02-22T14:23:45;99876.22;;;22.94;30.17
6349;BME280;3207;42.648;23.406;2023-02-22T14:26:15;99877.69;;;22.97;30.15
6349;BME280;3207;42.648;23.406;2023-02-22T14:28:53;99875.84;;;22.97;30.43
6349;BME280;3207;42.648;23.406;2023-02-22T14:31:25;99877.97;;;22.59;30.74
6349;BME280;3207;42.648;23.406;2023-02-22T14:34:01;99871.91;;;22.23;31.21
6349;BME280;3207;42.648;23.406;2023-02-22T14:36:35;99879.44;;;21.98;31.83
6349;BME280;3207;42.648;23.406;2023-02-22T14:39:11;99874.97;;;21.69;32.32
6349;BME280;3207;42.648;23.406;2023-02-22T14:41:41;99862.88;;;21.52;32.50
6349;BME280;3207;42.648;23.406;2023-02-22T14:44:12;99866.47;;;21.59;32.71
6349;BME280;3207;42.648;23.406;2023-02-22T14:46:45;99870.13;;;21.43;32.89
6349;BME280;3207;42.648;23.406;2023-02-22T14:49:16;99864.00;;;21.43;32.80
6349;BME280;3207;42.648;23.406;2023-02-22T14:51:50;99867.03;;;21.25;33.71
6349;BME280;3207;42.648;23.406;2023-02-22T14:54:25;99868.59;;;21.19;33.68
6349;BME280;3207;42.648;23.406;2023-02-22T14:56:59;99864.56;;;21.24;33.50
6349;BME280;3207;42.648;23.406;2023-02-22T14:59:46;99861.69;;;21.10;33.88
6349;BME280;3207;42.648;23.406;2023-02-22T15:02:18;99868.94;;;21.16;33.95
6349;BME280;3207;42.648;23.406;2023-02-22T15:04:51;99863.97;;;21.13;33.77
6349;BME280;3207;42.648;23.406;2023-02-22T15:07:24;99858.97;;;21.18;33.55
6349;BME280;3207;42.648;23.406;2023-02-22T15:10:04;99856.41;;;21.40;33.18
6349;BME280;3207;42.648;23.406;2023-02-22T15:12:32;99848.75;;;21.51;33.04
6349;BME280;3207;42.648;23.406;2023-02-22T15:15:15;99849.56;;;21.52;32.67
6349;BME280;3207;42.648;23.406;2023-02-22T15:17:51;99848.13;;;21.49;32.44
6349;BME280;3207;42.648;23.406;2023-02-22T15:20:19;99832.28;;;21.27;32.68
6349;BME280;3207;42.648;23.406;2023-02-22T15:22:47;99837.22;;;21.15;32.94
6349;BME280;3207;42.648;23.406;2023-02-22T15:25:15;99844.88;;;21.18;32.93
6349;BME280;3207;42.648;23.406;2023-02-22T15:27:44;99844.72;;;21.11;32.82
6349;BME280;3207;42.648;23.406;2023-02-22T15:30:20;99825.31;;;20.96;32.98
6349;BME280;3207;42.648;23.406;2023-02-22T15:32:49;99833.81;;;21.06;32.70
6349;BME280;3207;42.648;23.406;2023-02-22T15:35:18;99836.84;;;21.03;32.88
6349;BME280;3207;42.648;23.406;2023-02-22T15:37:57;99846.84;;;21.01;32.97
6349;BME280;3207;42.648;23.406;2023-02-22T15:40:24;99835.94;;;20.96;33.25
6349;BME280;3207;42.648;23.406;2023-02-22T15:42:58;99837.47;;;20.91;33.46
6349;BME280;3207;42.648;23.406;2023-02-22T15:45:27;99830.28;;;20.62;33.79
6349;BME280;3207;42.648;23.406;2023-02-22T15:47:56;99838.97;;;20.56;34.16
6349;BME280;3207;42.648;23.406;2023-02-22T15:50:25;99834.28;;;20.43;34.31
6349;BME280;3207;42.648;23.406;2023-02-22T15:52:55;99827.97;;;20.21;34.89
6349;BME280;3207;42.648;23.406;2023-02-22T15:55:26;99828.72;;;20.07;35.18
6349;BME280;3207;42.648;23.406;2023-02-22T15:57:54;99823.94;;;20.02;35.38
6349;BME280;3207;42.648;23.406;2023-02-22T16:00:24;99820.28;;;19.81;35.68
6349;BME280;3207;42.648;23.406;2023-02-22T16:02:59;99823.97;;;19.71;36.06
6349;BME280;3207;42.648;23.406;2023-02-22T16:05:34;99825.72;;;19.56;36.28
6349;BME280;3207;42.648;23.406;2023-02-22T16:08:03;99821.13;;;19.42;36.80
6349;BME280;3207;42.648;23.406;2023-02-22T16:10:36;99809.28;;;19.22;37.02
6349;BME280;3207;42.648;23.406;2023-02-22T16:13:08;99808.81;;;19.10;37.54
6349;BME280;3207;42.648;23.406;2023-02-22T16:15:36;99819.41;;;19.10;37.75
6349;BME280;3207;42.648;23.406;2023-02-22T16:18:26;99818.38;;;19.19;37.79
6349;BME280;3207;42.648;23.406;2023-02-22T16:20:59;99802.59;;;18.95;37.96
6349;BME280;3207;42.648;23.406;2023-02-22T16:23:27;99816.31;;;18.98;38.36
6349;BME280;3207;42.648;23.406;2023-02-22T16:26:14;99822.31;;;18.92;38.47
6349;BME280;3207;42.648;23.406;2023-02-22T16:28:47;99819.66;;;18.76;38.90
6349;BME280;3207;42.648;23.406;2023-02-22T16:31:17;99820.22;;;18.63;39.37
6349;BME280;3207;42.648;23.406;2023-02-22T16:33:47;99817.53;;;18.55;39.42
6349;BME280;3207;42.648;23.406;2023-02-22T16:36:16;99818.38;;;18.48;39.55
6349;BME280;3207;42.648;23.406;2023-02-22T16:38:43;99815.22;;;18.36;39.84
6349;BME280;3207;42.648;23.406;2023-02-22T16:41:13;99822.69;;;18.33;40.12
6349;BME280;3207;42.648;23.406;2023-02-22T16:43:44;99818.88;;;18.19;40.35